createdAt,value
2019-04-06T00:00:48.412Z,41.42
2019-04-06T00:03:24.122Z,41.60
2019-04-06T00:05:57.571Z,42.85
2019-04-06T00:08:31.053Z,44.35
2019-04-06T00:11:04.602Z,42.85
2019-04-06T00:13:37.975Z,39.53
2019-04-06T00:16:11.814Z,41.83
2019-04-06T00:18:45.163Z,43.42
2019-04-06T00:21:22.828Z,38.95
2019-04-06T00:23:56.172Z,48.13
2019-04-06T00:26:30.424Z,49.93
2019-04-06T00:29:03.961Z,37.30
2019-04-06T00:31:53.952Z,46.70
2019-04-06T00:34:27.405Z,39.63
2019-04-06T00:37:00.955Z,37.90
2019-04-06T00:39:34.392Z,49.85
2019-04-06T00:42:07.971Z,45.45
2019-04-06T00:44:41.486Z,50.30
2019-04-06T00:47:15.834Z,39.58
2019-04-06T00:49:49.194Z,41.02
2019-04-06T00:52:22.732Z,45.67
2019-04-06T00:54:56.098Z,38.45
2019-04-06T00:57:29.475Z,44.83
2019-04-06T01:00:21.618Z,46.42
2019-04-06T01:02:55.027Z,42.13
2019-04-06T01:05:28.370Z,46.95
2019-04-06T01:08:01.795Z,45.63
2019-04-06T01:10:35.475Z,41.60
2019-04-06T01:13:14.267Z,40.45
2019-04-06T01:15:47.563Z,37.80
2019-04-06T01:18:20.995Z,52.43
2019-04-06T01:20:54.434Z,49.23
2019-04-06T01:23:27.840Z,49.15
2019-04-06T01:26:07.092Z,42.38
2019-04-06T01:28:36.252Z,36.60
2019-04-06T01:31:09.659Z,37.17
2019-04-06T01:33:43.082Z,35.33
2019-04-06T01:36:16.435Z,35.25
2019-04-06T01:38:49.905Z,34.85
2019-04-06T01:41:24.445Z,37.53
2019-04-06T01:44:01.532Z,38.78
2019-04-06T01:46:34.884Z,33.23
2019-04-06T01:49:08.326Z,38.80
2019-04-06T01:51:41.602Z,34.48
2019-04-06T01:54:15.045Z,31.95
2019-04-06T01:56:48.420Z,39.90
2019-04-06T01:59:21.784Z,29.32
2019-04-06T02:01:56.715Z,33.73
2019-04-06T02:04:30.172Z,33.13
2019-04-06T02:07:03.492Z,33.75
2019-04-06T02:09:36.986Z,36.15
2019-04-06T02:12:10.364Z,32.45
2019-04-06T02:14:43.844Z,33.58
2019-04-06T02:17:17.202Z,35.35
2019-04-06T02:19:50.651Z,37.80
2019-04-06T02:22:25.070Z,33.98
2019-04-06T02:24:58.359Z,32.88
2019-04-06T02:33:17.725Z,30.77
2019-04-06T02:35:52.654Z,36.65
2019-04-06T02:38:33.537Z,33.55
2019-04-06T02:41:08.487Z,37.98
2019-04-06T02:46:43.478Z,32.42
2019-04-06T02:49:16.904Z,31.87
2019-04-06T02:52:07.406Z,40.63
2019-04-06T02:54:40.844Z,34.30
2019-04-06T02:57:35.629Z,32.42
2019-04-06T03:00:09.494Z,36.35
2019-04-06T03:02:44.076Z,41.53
2019-04-06T03:05:18.645Z,39.60
2019-04-06T03:07:52.015Z,35.25
2019-04-06T03:10:25.548Z,31.82
2019-04-06T03:12:58.960Z,36.23
2019-04-06T03:15:32.338Z,36.15
2019-04-06T03:18:05.793Z,32.90
2019-04-06T03:20:39.192Z,33.38
2019-04-06T03:23:12.570Z,29.15
2019-04-06T03:25:47.777Z,35.43
2019-04-06T03:28:21.181Z,33.45
2019-04-06T03:30:54.715Z,32.55
2019-04-06T03:36:31.317Z,33.38
2019-04-06T03:39:06.013Z,32.50
2019-04-06T03:41:39.497Z,32.83
2019-04-06T03:44:12.840Z,29.50
2019-04-06T03:46:46.231Z,36.05
2019-04-06T03:49:19.759Z,29.82
2019-04-06T03:54:26.537Z,30.45
2019-04-06T03:57:15.945Z,34.05
2019-04-06T03:59:47.682Z,31.35
2019-04-06T04:02:21.055Z,31.40
2019-04-06T04:04:54.562Z,32.93
2019-04-06T04:07:27.914Z,28.62
2019-04-06T04:10:01.309Z,29.95
2019-04-06T04:13:03.565Z,29.10
2019-04-06T04:15:36.973Z,26.93
2019-04-06T04:18:11.615Z,29.35
2019-04-06T04:20:45.215Z,28.07
2019-04-06T04:23:27.691Z,23.92
2019-04-06T04:26:02.278Z,25.00
2019-04-06T04:28:36.475Z,21.42
2019-04-06T04:31:09.963Z,27.13
2019-04-06T04:33:45.505Z,27.27
2019-04-06T04:36:25.603Z,26.00
2019-04-06T04:38:58.975Z,33.33
2019-04-06T04:41:32.404Z,25.85
2019-04-06T04:44:05.819Z,26.93
2019-04-06T04:46:39.265Z,26.52
2019-04-06T04:49:12.607Z,30.48
2019-04-06T04:51:46.146Z,25.88
2019-04-06T04:54:19.422Z,31.45
2019-04-06T04:56:52.866Z,31.45
2019-04-06T04:59:26.340Z,25.30
2019-04-06T05:01:59.752Z,35.20
2019-04-06T05:04:33.112Z,26.87
2019-04-06T05:07:06.606Z,23.45
2019-04-06T05:09:40.174Z,29.80
2019-04-06T05:12:13.643Z,30.57
2019-04-06T05:15:04.597Z,22.77
2019-04-06T05:20:40.767Z,25.68
2019-04-06T05:23:15.498Z,30.55
2019-04-06T05:25:48.954Z,23.95
2019-04-06T05:28:23.484Z,21.97
2019-04-06T05:33:49.265Z,24.98
2019-04-06T05:36:22.825Z,23.80
2019-04-06T05:38:56.452Z,25.43
2019-04-06T05:41:29.892Z,26.10
2019-04-06T05:44:03.327Z,25.97
2019-04-06T05:46:48.352Z,30.02
2019-04-06T05:49:21.953Z,23.62
2019-04-06T05:51:55.471Z,28.40
2019-04-06T05:54:29.814Z,27.95
2019-04-06T05:57:03.199Z,45.73
2019-04-06T05:59:40.316Z,22.93
2019-04-06T06:02:11.691Z,23.77
2019-04-06T06:04:47.724Z,29.80
2019-04-06T06:07:22.488Z,26.62
2019-04-06T06:09:56.111Z,32.65
2019-04-06T06:12:30.560Z,27.30
2019-04-06T06:15:05.204Z,27.75
2019-04-06T06:17:39.974Z,27.60
2019-04-06T06:20:14.554Z,23.05
2019-04-06T06:22:48.104Z,29.55
2019-04-06T06:25:21.847Z,29.85
2019-04-06T06:27:55.261Z,31.65
2019-04-06T06:30:28.752Z,20.45
2019-04-06T06:33:02.206Z,31.23
2019-04-06T06:35:35.609Z,22.85
2019-04-06T06:38:08.996Z,27.77
2019-04-06T06:40:43.555Z,23.75
2019-04-06T06:43:18.045Z,26.77
2019-04-06T06:45:51.505Z,32.23
2019-04-06T06:48:24.901Z,23.52
2019-04-06T06:50:58.273Z,23.02
2019-04-06T06:53:31.804Z,30.70
2019-04-06T06:56:05.502Z,30.23
2019-04-06T06:58:41.885Z,29.87
2019-04-06T07:01:15.430Z,29.35
2019-04-06T07:03:48.935Z,25.25
2019-04-06T07:06:22.352Z,23.83
2019-04-06T07:08:56.047Z,26.42
2019-04-06T07:11:29.443Z,22.95
2019-04-06T07:14:02.854Z,25.88
2019-04-06T07:16:36.253Z,29.12
2019-04-06T07:19:09.789Z,27.85
2019-04-06T07:21:43.189Z,22.25
2019-04-06T07:24:16.670Z,33.38
2019-04-06T07:26:50.231Z,25.25
2019-04-06T07:29:24.459Z,24.45
2019-04-06T07:31:58.422Z,27.15
2019-04-06T07:34:31.927Z,27.55
2019-04-06T07:37:06.854Z,27.07
2019-04-06T07:39:40.252Z,34.20
2019-04-06T07:42:13.711Z,32.17
2019-04-06T07:44:47.252Z,28.00
2019-04-06T07:47:20.842Z,33.53
2019-04-06T07:49:54.605Z,28.05
2019-04-06T07:52:28.023Z,31.17
2019-04-06T07:55:01.514Z,27.35
2019-04-06T07:57:35.396Z,30.32
2019-04-06T08:00:09.613Z,23.40
2019-04-06T08:02:43.023Z,25.65
2019-04-06T08:05:16.407Z,26.45
2019-04-06T08:07:49.844Z,19.00
2019-04-06T08:10:23.769Z,29.30
2019-04-06T08:12:57.246Z,26.82
2019-04-06T08:15:30.942Z,31.20
2019-04-06T08:18:04.327Z,30.75
2019-04-06T08:20:38.738Z,28.00
2019-04-06T08:23:12.366Z,44.30
2019-04-06T08:25:45.850Z,27.17
2019-04-06T08:28:19.435Z,29.98
2019-04-06T08:30:54.511Z,29.60
2019-04-06T08:33:31.494Z,35.23
2019-04-06T08:36:04.917Z,33.70
2019-04-06T08:38:38.364Z,30.85
2019-04-06T08:41:11.874Z,30.80
2019-04-06T08:43:45.345Z,33.35
2019-04-06T08:46:18.709Z,30.80
2019-04-06T08:48:52.414Z,25.70
2019-04-06T08:51:26.141Z,25.85
2019-04-06T08:53:59.852Z,27.82
2019-04-06T08:56:33.343Z,36.15
2019-04-06T08:59:11.961Z,32.90
2019-04-06T09:01:42.199Z,36.73
2019-04-06T09:04:15.737Z,34.53
2019-04-06T09:06:49.099Z,30.82
2019-04-06T09:09:23.672Z,36.23
2019-04-06T09:11:57.162Z,30.32
2019-04-06T09:14:30.601Z,26.42
2019-04-06T09:17:04.070Z,33.75
2019-04-06T09:19:37.535Z,42.08
2019-04-06T09:22:10.900Z,24.80
2019-04-06T09:24:44.424Z,26.37
2019-04-06T09:27:17.965Z,30.60
2019-04-06T09:29:52.344Z,28.57
2019-04-06T09:32:27.043Z,31.85
2019-04-06T09:35:00.655Z,23.80
2019-04-06T09:37:35.072Z,31.48
2019-04-06T09:40:08.656Z,32.85
2019-04-06T09:42:42.089Z,31.52
2019-04-06T09:45:17.969Z,28.17
2019-04-06T09:47:52.884Z,32.88
2019-04-06T09:50:28.838Z,30.75
2019-04-06T09:53:06.625Z,25.12
2019-04-06T09:55:43.653Z,27.48
2019-04-06T09:58:21.194Z,27.55
2019-04-06T10:01:01.783Z,28.23
2019-04-06T10:03:51.824Z,26.87
2019-04-06T10:06:26.913Z,28.85
2019-04-06T10:09:00.129Z,26.15
2019-04-06T10:11:35.945Z,29.57
2019-04-06T10:14:17.943Z,24.65
2019-04-06T10:16:58.269Z,28.20
2019-04-06T10:19:34.373Z,22.45
2019-04-06T10:22:13.592Z,29.80
2019-04-06T10:24:58.834Z,28.45
2019-04-06T10:27:49.614Z,30.25
2019-04-06T10:30:24.945Z,27.05
2019-04-06T10:32:58.183Z,27.90
2019-04-06T10:35:41.186Z,31.00
2019-04-06T10:38:22.055Z,39.63
2019-04-06T10:41:07.223Z,27.32
2019-04-06T10:43:44.890Z,22.37
2019-04-06T10:46:33.175Z,29.75
2019-04-06T10:49:24.311Z,27.52
2019-04-06T10:52:15.248Z,33.30
2019-04-06T10:55:06.271Z,28.95
2019-04-06T10:57:41.392Z,29.23
2019-04-06T11:00:29.978Z,24.40
2019-04-06T11:03:07.853Z,26.93
2019-04-06T11:05:42.811Z,35.92
2019-04-06T11:08:15.966Z,32.53
2019-04-06T11:11:02.270Z,48.02
2019-04-06T11:13:52.389Z,29.35
2019-04-06T11:16:42.334Z,25.10
2019-04-06T11:19:33.023Z,30.77
2019-04-06T11:22:24.116Z,27.32
2019-04-06T11:25:15.264Z,28.62
2019-04-06T11:28:07.055Z,25.80
2019-04-06T11:30:47.965Z,23.85
2019-04-06T11:33:21.166Z,33.73
2019-04-06T11:36:08.032Z,27.58
2019-04-06T11:38:42.942Z,32.98
2019-04-06T11:41:21.907Z,32.48
2019-04-06T11:43:57.853Z,34.70
2019-04-06T11:46:39.738Z,32.78
2019-04-06T11:52:15.890Z,31.27
2019-04-06T11:54:52.299Z,26.82
2019-04-06T11:57:30.551Z,30.10
2019-04-06T12:00:24.460Z,27.85
2019-04-06T12:03:08.354Z,30.02
2019-04-06T12:05:45.891Z,33.00
2019-04-06T12:08:21.760Z,30.35
2019-04-06T12:11:11.645Z,29.27
2019-04-06T12:13:47.593Z,28.92
2019-04-06T12:16:28.862Z,44.50
2019-04-06T12:19:20.163Z,31.85
2019-04-06T12:25:13.781Z,71.67
2019-04-06T12:27:54.753Z,39.27
2019-04-06T12:30:40.294Z,57.90
2019-04-06T12:33:21.061Z,28.05
2019-04-06T12:36:12.561Z,29.87
2019-04-06T12:38:53.447Z,21.15
2019-04-06T12:41:29.787Z,24.90
2019-04-06T12:44:20.905Z,25.68
2019-04-06T12:47:12.519Z,33.63
2019-04-06T12:49:51.855Z,25.25
2019-04-06T12:52:36.265Z,37.80
2019-04-06T12:55:14.062Z,43.87
2019-04-06T12:57:51.791Z,27.82
2019-04-06T13:00:35.734Z,28.90
2019-04-06T13:03:19.740Z,30.48
2019-04-06T13:06:00.450Z,30.95
2019-04-06T13:08:54.127Z,27.45
2019-04-06T13:11:39.487Z,28.32
2019-04-06T13:14:30.639Z,28.05
2019-04-06T13:17:20.932Z,43.42
2019-04-06T13:19:56.011Z,37.38
2019-04-06T13:22:34.813Z,52.95
2019-04-06T13:25:17.257Z,40.30
2019-04-06T13:28:05.219Z,53.20
2019-04-06T13:30:38.538Z,35.40
2019-04-06T13:33:13.895Z,29.87
2019-04-06T13:35:51.538Z,23.55
2019-04-06T13:38:42.716Z,27.58
2019-04-06T13:41:26.882Z,25.92
2019-04-06T13:44:01.891Z,22.42
2019-04-06T13:46:36.954Z,23.38
2019-04-06T13:49:24.346Z,25.68
2019-04-06T13:52:15.483Z,28.05
2019-04-06T13:54:56.464Z,26.75
2019-04-06T13:57:34.695Z,35.17
2019-04-06T14:00:16.010Z,31.93
2019-04-06T14:03:08.276Z,48.25
2019-04-06T14:05:44.229Z,57.25
2019-04-06T14:08:36.398Z,41.83
2019-04-06T14:11:18.067Z,40.65
2019-04-06T14:13:53.802Z,35.38
2019-04-06T14:16:35.734Z,37.75
2019-04-06T14:19:28.669Z,31.05
2019-04-06T14:22:06.471Z,39.92
2019-04-06T14:24:44.271Z,30.17
2019-04-06T14:27:22.579Z,28.95
2019-04-06T14:30:07.693Z,29.40
2019-04-06T14:32:55.696Z,35.10
2019-04-06T14:35:34.679Z,69.15
2019-04-06T14:38:26.071Z,45.88
2019-04-06T14:41:12.489Z,41.45
2019-04-06T14:43:59.336Z,34.05
2019-04-06T14:46:35.336Z,36.08
2019-04-06T14:49:22.471Z,32.83
2019-04-06T14:51:57.796Z,40.50
2019-04-06T14:54:37.306Z,34.58
2019-04-06T14:57:10.478Z,40.75
2019-04-06T14:59:49.454Z,45.90
2019-04-06T15:02:25.537Z,34.08
2019-04-06T15:05:17.937Z,46.83
2019-04-06T15:07:51.265Z,51.18
2019-04-06T15:10:38.558Z,38.88
2019-04-06T15:13:20.814Z,38.48
2019-04-06T15:15:55.844Z,43.60
2019-04-06T15:18:30.964Z,38.73
2019-04-06T15:21:24.417Z,38.35
2019-04-06T15:24:01.889Z,53.78
2019-04-06T15:26:38.098Z,50.20
2019-04-06T15:29:25.388Z,47.75
2019-04-06T15:32:16.618Z,40.23
2019-04-06T15:35:04.037Z,48.78
2019-04-06T15:37:41.883Z,45.98
2019-04-06T15:40:15.403Z,39.63
2019-04-06T15:42:59.311Z,49.75
2019-04-06T15:45:37.576Z,48.48
2019-04-06T15:48:36.542Z,55.20
2019-04-06T15:51:18.445Z,52.88
2019-04-06T15:54:02.523Z,52.15
2019-04-06T15:56:53.888Z,42.98
2019-04-06T15:59:37.181Z,39.48
2019-04-06T16:02:13.169Z,45.25
2019-04-06T16:05:00.630Z,43.17
2019-04-06T16:07:36.113Z,40.80
2019-04-06T16:10:11.322Z,39.25
2019-04-06T16:12:52.300Z,62.45
2019-04-06T16:15:35.933Z,54.30
2019-04-06T16:18:13.464Z,48.78
2019-04-06T16:20:49.773Z,56.18
2019-04-06T16:23:44.448Z,59.45
2019-04-06T16:26:21.170Z,64.50
2019-04-06T16:29:02.357Z,62.33
2019-04-06T16:31:44.559Z,72.22
2019-04-06T16:34:31.742Z,61.23
2019-04-06T16:37:11.025Z,55.80
2019-04-06T16:40:02.133Z,64.20
2019-04-06T16:42:40.844Z,59.38
2019-04-06T16:45:28.164Z,57.73
2019-04-06T16:48:03.216Z,59.93
2019-04-06T16:50:36.405Z,69.60
2019-04-06T16:53:27.924Z,63.28
2019-04-06T16:56:11.975Z,45.38
2019-04-06T16:58:54.013Z,42.88
2019-04-06T17:01:33.102Z,43.60
2019-04-06T17:04:23.330Z,46.83
2019-04-06T17:07:04.205Z,44.40
2019-04-06T17:09:46.006Z,41.18
2019-04-06T17:12:38.803Z,40.88
2019-04-06T17:18:22.657Z,47.27
2019-04-06T17:21:13.981Z,54.75
2019-04-06T17:23:55.050Z,52.27
2019-04-06T17:26:36.086Z,54.38
2019-04-06T17:29:19.953Z,56.65
2019-04-06T17:31:57.717Z,70.72
2019-04-06T17:34:38.633Z,74.27
2019-04-06T17:37:31.992Z,67.58
2019-04-06T17:40:28.810Z,69.53
2019-04-06T17:46:12.919Z,58.00
2019-04-06T17:48:51.233Z,63.15
2019-04-06T17:51:32.291Z,65.12
2019-04-06T17:54:23.246Z,59.35
2019-04-06T17:57:00.893Z,75.10
2019-04-06T17:59:53.048Z,61.35
2019-04-06T18:02:47.840Z,84.55
2019-04-06T18:05:18.034Z,70.22
2019-04-06T18:07:53.170Z,56.58
2019-04-06T18:10:29.316Z,58.13
2019-04-06T18:13:13.680Z,57.90
2019-04-06T18:15:47.260Z,51.68
2019-04-06T18:18:21.121Z,59.33
2019-04-06T18:20:55.103Z,52.23
2019-04-06T18:23:28.898Z,58.45
2019-04-06T18:26:03.532Z,65.62
2019-04-06T18:28:39.689Z,54.00
2019-04-06T18:31:20.610Z,55.10
2019-04-06T18:33:54.686Z,57.08
2019-04-06T18:36:42.106Z,67.15
2019-04-06T18:39:18.055Z,85.00
2019-04-06T18:41:51.957Z,155.20
2019-04-06T18:44:25.645Z,105.50
2019-04-06T18:46:59.177Z,71.42
2019-04-06T18:49:33.125Z,133.27
2019-04-06T18:52:06.751Z,133.97
2019-04-06T18:54:40.256Z,123.50
2019-04-06T18:57:13.767Z,126.22
2019-04-06T18:59:47.262Z,148.00
2019-04-06T19:02:21.285Z,175.45
2019-04-06T19:04:54.844Z,213.80
2019-04-06T19:07:28.814Z,126.12
2019-04-06T19:10:02.596Z,111.83
2019-04-06T19:12:36.053Z,151.37
2019-04-06T19:15:09.697Z,178.18
2019-04-06T19:17:43.201Z,147.17
2019-04-06T19:20:17.178Z,556.60
2019-04-06T19:22:50.849Z,249.82
2019-04-06T19:25:24.330Z,129.47
2019-04-06T19:27:57.814Z,73.92
2019-04-06T19:30:32.819Z,70.25
2019-04-06T19:33:06.697Z,73.17
2019-04-06T19:35:41.522Z,100.38
2019-04-06T19:38:15.000Z,72.50
2019-04-06T19:40:48.559Z,72.80
2019-04-06T19:43:23.110Z,67.60
2019-04-06T19:45:56.705Z,89.13
2019-04-06T19:48:31.297Z,105.20
2019-04-06T19:51:04.683Z,92.20
2019-04-06T19:53:38.203Z,90.03
2019-04-06T19:56:12.089Z,120.80
2019-04-06T19:58:46.413Z,92.35
2019-04-06T20:01:20.415Z,102.85
2019-04-06T20:03:54.431Z,111.30
2019-04-06T20:06:28.046Z,133.55
2019-04-06T20:09:01.528Z,87.67
2019-04-06T20:11:36.486Z,77.05
2019-04-06T20:14:11.129Z,72.40
2019-04-06T20:16:45.527Z,70.62
2019-04-06T20:19:18.990Z,71.22
2019-04-06T20:21:53.002Z,84.83
2019-04-06T20:24:27.610Z,78.65
2019-04-06T20:27:01.446Z,72.58
2019-04-06T20:29:35.278Z,75.42
2019-04-06T20:32:08.803Z,73.80
2019-04-06T20:34:42.542Z,72.67
2019-04-06T20:37:16.157Z,74.35
2019-04-06T20:39:50.634Z,79.03
2019-04-06T20:42:24.627Z,73.75
2019-04-06T20:44:58.222Z,71.15
2019-04-06T20:47:32.105Z,64.75
2019-04-06T20:50:09.285Z,70.22
2019-04-06T20:52:43.368Z,64.10
2019-04-06T20:55:16.817Z,61.42
2019-04-06T20:57:50.426Z,66.95
2019-04-06T21:00:24.042Z,67.58
2019-04-06T21:02:57.596Z,68.40
2019-04-06T21:05:31.307Z,69.87
2019-04-06T21:08:04.801Z,70.47
2019-04-06T21:10:39.421Z,68.37
2019-04-06T21:13:13.012Z,66.75
2019-04-06T21:15:47.602Z,81.12
2019-04-06T21:18:21.101Z,71.07
2019-04-06T21:20:54.500Z,69.65
2019-04-06T21:23:28.484Z,71.60
2019-04-06T21:26:01.969Z,68.78
2019-04-06T21:28:35.480Z,73.15
2019-04-06T21:31:08.970Z,74.32
2019-04-06T21:33:45.879Z,76.67
2019-04-06T21:36:19.127Z,75.12
2019-04-06T21:39:06.330Z,70.35
2019-04-06T21:41:40.652Z,64.87
2019-04-06T21:44:14.036Z,68.33
2019-04-06T21:46:47.466Z,70.22
2019-04-06T21:49:21.127Z,72.22
2019-04-06T21:51:55.248Z,70.25
2019-04-06T21:54:30.737Z,68.28
2019-04-06T21:57:05.061Z,71.30
2019-04-06T21:59:40.468Z,74.87
2019-04-06T22:02:15.089Z,69.70
2019-04-06T22:04:48.784Z,72.30
2019-04-06T22:07:22.280Z,79.65
2019-04-06T22:09:55.858Z,72.75
2019-04-06T22:12:29.352Z,77.45
2019-04-06T22:15:04.415Z,77.20
2019-04-06T22:17:37.916Z,79.03
2019-04-06T22:20:12.328Z,76.60
2019-04-06T22:22:46.012Z,75.50
2019-04-06T22:25:19.805Z,76.95
2019-04-06T22:27:54.022Z,69.77
2019-04-06T22:30:27.496Z,67.10
2019-04-06T22:33:00.962Z,67.00
2019-04-06T22:35:34.909Z,62.80
2019-04-06T22:40:59.594Z,67.78
2019-04-06T22:44:13.142Z,69.20
2019-04-06T22:46:46.593Z,64.15
2019-04-06T22:49:22.738Z,66.53
2019-04-06T22:51:56.211Z,63.55
2019-04-06T22:54:30.223Z,61.58
2019-04-06T22:57:04.357Z,61.30
2019-04-06T22:59:39.401Z,58.75
2019-04-06T23:02:12.986Z,63.10
2019-04-06T23:05:05.210Z,61.13
2019-04-06T23:07:39.132Z,59.03
2019-04-06T23:10:13.306Z,53.33
2019-04-06T23:12:48.591Z,59.05
2019-04-06T23:15:22.222Z,56.88
2019-04-06T23:17:55.701Z,61.28
2019-04-06T23:20:29.182Z,63.73
2019-04-06T23:23:02.573Z,61.28
2019-04-06T23:25:37.244Z,60.95
2019-04-06T23:28:10.679Z,55.20
2019-04-06T23:30:44.170Z,60.67
2019-04-06T23:33:17.641Z,61.00
2019-04-06T23:35:51.709Z,64.30
2019-04-06T23:38:29.296Z,48.95
2019-04-06T23:41:03.578Z,56.00
2019-04-06T23:43:37.697Z,51.98
2019-04-06T23:46:11.524Z,57.35
2019-04-06T23:48:45.003Z,57.05
2019-04-06T23:51:25.634Z,61.77
2019-04-06T23:54:01.962Z,56.00
2019-04-06T23:56:35.495Z,63.05
2019-04-06T23:59:09.581Z,68.12
